Sauk Rapids, Minnesota
Current Conditions -  °F | °C
As of 7:53 AM on Sunday 25 Jan 2015 (Local Time) from KSTC Reporting Station
Broken Clouds Broken Clouds  
Wind Chill: 11°   Ceiling: 1900
Heat Index: 20°   Visibility: 10mi
Dew Point: 13°   Wind: 7mph
Humidity: 74%   Direction: 50°NE
Pressure: 29.96"   Gusts: NA
Location:  45.59°N, 94.17°W
Report Text: KSTC 251353Z 05006KT 10SM BKN019 M07/M11 A2996 RMK AO2 SLP169 T10671106
Loading
Personal Weather Stations






























Interactive Weather Map New forecast layout! Learn more

10-Day Weather Forecast

Advertisements
Track Severe Weather on mobile